createdAt,value
2019-05-17T00:02:17.690Z,7.05
2019-05-17T00:04:47.548Z,7.20
2019-05-17T00:07:17.417Z,7.05
2019-05-17T00:09:50.946Z,6.67
2019-05-17T00:12:20.775Z,7.20
2019-05-17T00:14:50.666Z,6.63
2019-05-17T00:17:20.480Z,6.87
2019-05-17T00:19:50.347Z,7.03
2019-05-17T00:22:20.276Z,6.97
2019-05-17T00:24:50.244Z,6.60
2019-05-17T00:27:20.062Z,7.15
2019-05-17T00:29:49.986Z,7.40
2019-05-17T00:32:19.858Z,7.08
2019-05-17T00:34:49.725Z,7.40
2019-05-17T00:37:19.597Z,7.40
2019-05-17T00:39:49.428Z,6.95
2019-05-17T00:42:19.333Z,7.17
2019-05-17T00:44:49.603Z,7.42
2019-05-17T00:47:19.404Z,7.45
2019-05-17T00:49:49.297Z,7.42
2019-05-17T00:52:19.111Z,7.55
2019-05-17T00:54:48.970Z,7.47
2019-05-17T00:57:18.824Z,7.83
2019-05-17T00:59:48.622Z,7.65
2019-05-17T01:02:18.526Z,7.60
2019-05-17T01:04:48.420Z,8.35
2019-05-17T01:07:18.258Z,7.47
2019-05-17T01:10:08.827Z,8.03
2019-05-17T01:12:38.693Z,7.62
2019-05-17T01:15:10.960Z,7.97
2019-05-17T01:17:40.817Z,7.87
2019-05-17T01:20:11.133Z,8.43
2019-05-17T01:22:40.994Z,8.15
2019-05-17T01:25:11.319Z,7.78
2019-05-17T01:27:41.135Z,7.83
2019-05-17T01:30:11.773Z,8.28
2019-05-17T01:32:41.597Z,8.25
2019-05-17T01:35:11.600Z,7.85
2019-05-17T01:37:41.417Z,8.00
2019-05-17T01:40:11.632Z,8.13
2019-05-17T01:42:41.509Z,8.50
2019-05-17T01:45:11.637Z,7.97
2019-05-17T01:47:41.541Z,8.25
2019-05-17T01:50:11.472Z,8.78
2019-05-17T01:52:41.339Z,8.23
2019-05-17T01:55:11.353Z,8.48
2019-05-17T01:57:41.169Z,8.85
2019-05-17T02:00:12.384Z,8.10
2019-05-17T02:02:47.106Z,8.00
2019-05-17T02:05:17.526Z,8.40
2019-05-17T02:07:47.400Z,8.05
2019-05-17T02:10:17.546Z,8.18
2019-05-17T02:12:49.048Z,8.50
2019-05-17T02:15:19.377Z,8.20
2019-05-17T02:17:49.986Z,8.73
2019-05-17T02:20:20.258Z,8.63
2019-05-17T02:22:50.095Z,8.40
2019-05-17T02:25:21.076Z,8.38
2019-05-17T02:27:52.305Z,8.57
2019-05-17T02:30:23.270Z,8.43
2019-05-17T02:32:54.265Z,9.33
2019-05-17T02:35:24.273Z,8.00
2019-05-17T02:37:54.209Z,8.78
2019-05-17T02:40:24.042Z,9.45
2019-05-17T02:42:53.922Z,9.03
2019-05-17T02:45:24.135Z,9.68
2019-05-17T02:47:54.309Z,8.68
2019-05-17T02:50:24.258Z,9.08
2019-05-17T02:52:54.150Z,8.75
2019-05-17T02:55:24.057Z,8.65
2019-05-17T02:57:53.920Z,8.63
2019-05-17T03:00:24.146Z,8.98
2019-05-17T03:02:54.218Z,9.48
2019-05-17T03:05:24.082Z,9.17
2019-05-17T03:08:12.406Z,9.93
2019-05-17T03:10:43.465Z,9.90
2019-05-17T03:13:17.573Z,9.68
2019-05-17T03:15:44.863Z,10.25
2019-05-17T03:18:17.964Z,10.08
2019-05-17T03:20:52.260Z,9.28
2019-05-17T03:23:23.197Z,9.00
2019-05-17T03:25:52.597Z,9.83
2019-05-17T03:28:42.622Z,9.60
2019-05-17T03:31:16.667Z,10.10
2019-05-17T03:33:46.348Z,9.20
2019-05-17T03:36:17.723Z,9.53
2019-05-17T03:38:48.050Z,9.10
2019-05-17T03:41:23.724Z,9.58
2019-05-17T03:43:49.341Z,9.65
2019-05-17T03:46:22.923Z,9.20
2019-05-17T03:48:53.216Z,10.13
2019-05-17T03:51:23.269Z,10.15
2019-05-17T03:53:53.624Z,10.00
2019-05-17T03:56:23.491Z,10.50
2019-05-17T03:58:53.445Z,10.85
2019-05-17T04:01:23.479Z,10.70
2019-05-17T04:03:53.489Z,11.25
2019-05-17T04:06:23.940Z,10.20
2019-05-17T04:08:57.906Z,10.23
2019-05-17T04:11:31.758Z,10.73
2019-05-17T04:13:59.279Z,10.88
2019-05-17T04:16:29.097Z,10.98
2019-05-17T04:18:59.042Z,11.50
2019-05-17T04:21:29.922Z,10.18
2019-05-17T04:24:03.223Z,11.70
2019-05-17T04:26:32.761Z,11.60
2019-05-17T04:29:03.751Z,11.45
2019-05-17T04:31:34.637Z,10.93
2019-05-17T04:34:04.977Z,11.37
2019-05-17T04:36:34.847Z,12.47
2019-05-17T04:39:06.566Z,12.05
2019-05-17T04:41:45.432Z,11.88
2019-05-17T04:44:07.941Z,12.00
2019-05-17T04:46:37.793Z,11.48
2019-05-17T04:49:07.661Z,12.30
2019-05-17T04:51:37.528Z,11.45
2019-05-17T04:54:07.396Z,12.45
2019-05-17T04:56:37.193Z,11.67
2019-05-17T04:59:07.071Z,12.00
2019-05-17T05:01:37.978Z,11.90
2019-05-17T05:04:07.911Z,11.70
2019-05-17T05:06:37.770Z,12.03
2019-05-17T05:09:07.839Z,11.50
2019-05-17T05:11:51.904Z,12.23
2019-05-17T05:14:09.244Z,11.97
2019-05-17T05:16:39.112Z,11.40
2019-05-17T05:19:13.011Z,12.68
2019-05-17T05:21:43.143Z,13.00
2019-05-17T05:24:15.864Z,11.70
2019-05-17T05:26:52.636Z,12.93
2019-05-17T05:29:41.636Z,12.37
2019-05-17T05:32:11.881Z,12.70
2019-05-17T05:34:46.414Z,12.07
2019-05-17T05:37:23.127Z,12.28
2019-05-17T05:40:35.981Z,13.13
2019-05-17T05:43:08.901Z,11.65
2019-05-17T05:45:41.921Z,13.93
2019-05-17T05:48:12.951Z,13.80
2019-05-17T05:50:43.525Z,12.25
2019-05-17T05:53:13.485Z,13.35
2019-05-17T05:55:43.461Z,13.30
2019-05-17T05:58:13.591Z,13.45
2019-05-17T06:00:45.098Z,13.60
2019-05-17T06:03:16.408Z,13.40
2019-05-17T06:05:52.521Z,14.10
2019-05-17T06:08:23.764Z,14.50
2019-05-17T06:10:53.637Z,12.90
2019-05-17T06:13:41.744Z,14.40
2019-05-17T06:15:58.521Z,13.83
2019-05-17T06:18:33.283Z,14.60
2019-05-17T06:21:03.305Z,13.22
2019-05-17T06:23:33.309Z,13.88
2019-05-17T06:26:04.409Z,14.78
2019-05-17T06:28:38.385Z,15.15
2019-05-17T06:31:08.206Z,14.80
2019-05-17T06:33:42.305Z,15.48
2019-05-17T06:36:13.736Z,15.03
2019-05-17T06:38:43.913Z,14.30
2019-05-17T06:41:13.801Z,15.75
2019-05-17T06:43:43.632Z,15.37
2019-05-17T06:46:15.101Z,16.12
2019-05-17T06:52:07.977Z,14.25
2019-05-17T06:54:37.887Z,16.02
2019-05-17T07:06:04.584Z,15.70
2019-05-17T07:06:35.467Z,16.15
2019-05-17T07:09:06.716Z,16.27
2019-05-17T07:11:41.015Z,15.63
2019-05-17T07:14:10.948Z,16.77
2019-05-17T07:16:40.842Z,16.10
2019-05-17T07:19:13.198Z,16.67
2019-05-17T07:21:43.153Z,15.10
2019-05-17T07:24:13.018Z,15.35
2019-05-17T07:26:42.903Z,17.75
2019-05-17T07:29:19.437Z,15.88
2019-05-17T07:31:49.823Z,18.15
2019-05-17T07:34:20.026Z,18.65
2019-05-17T07:36:50.406Z,17.75
2019-05-17T07:39:20.544Z,17.95
2019-05-17T07:41:50.486Z,17.87
2019-05-17T07:44:20.554Z,15.95
2019-05-17T07:46:51.798Z,15.93
2019-05-17T07:49:21.999Z,18.05
2019-05-17T07:51:51.859Z,18.80
2019-05-17T07:54:21.736Z,17.32
2019-05-17T07:56:51.659Z,16.37
2019-05-17T07:59:22.649Z,17.12
2019-05-17T08:01:52.536Z,15.48
2019-05-17T08:04:22.406Z,19.10
2019-05-17T08:06:53.241Z,17.48
2019-05-17T08:10:00.180Z,20.20
2019-05-17T08:12:30.687Z,16.75
2019-05-17T08:15:03.715Z,16.97
2019-05-17T08:17:34.304Z,17.02
2019-05-17T08:20:10.056Z,18.73
2019-05-17T08:22:40.270Z,18.55
2019-05-17T08:25:10.923Z,19.90
2019-05-17T08:27:42.383Z,18.07
2019-05-17T08:30:13.489Z,17.52
2019-05-17T08:32:43.429Z,19.15
2019-05-17T08:35:13.417Z,17.98
2019-05-17T08:37:43.315Z,21.90
2019-05-17T08:40:15.357Z,19.50
2019-05-17T08:42:44.973Z,19.30
2019-05-17T08:45:15.124Z,23.12
2019-05-17T08:47:44.959Z,21.10
2019-05-17T08:50:15.022Z,18.35
2019-05-17T08:52:44.872Z,20.52
2019-05-17T08:55:15.234Z,20.72
2019-05-17T08:57:45.124Z,20.17
2019-05-17T09:00:15.822Z,19.77
2019-05-17T09:02:45.648Z,20.72
2019-05-17T09:05:15.519Z,19.93
2019-05-17T09:07:45.338Z,20.57
2019-05-17T09:10:15.204Z,21.05
2019-05-17T09:12:44.981Z,21.40
2019-05-17T09:15:14.861Z,20.88
2019-05-17T09:17:44.798Z,21.10
2019-05-17T09:20:15.971Z,20.62
2019-05-17T09:22:45.857Z,20.85
2019-05-17T09:25:21.800Z,20.52
2019-05-17T09:27:51.688Z,20.27
2019-05-17T09:30:50.669Z,21.95
2019-05-17T09:33:00.347Z,20.68
2019-05-17T09:35:30.094Z,19.27
2019-05-17T09:38:00.653Z,20.05
2019-05-17T09:40:30.595Z,20.08
2019-05-17T09:43:00.657Z,20.57
2019-05-17T09:45:30.717Z,20.40
2019-05-17T09:48:00.939Z,20.77
2019-05-17T09:50:30.803Z,21.00
2019-05-17T09:53:00.667Z,20.75
2019-05-17T09:55:36.907Z,20.33
2019-05-17T09:58:06.715Z,20.87
2019-05-17T10:00:37.249Z,20.48
2019-05-17T10:03:09.533Z,19.23
2019-05-17T10:05:40.584Z,19.73
2019-05-17T10:08:10.898Z,20.00
2019-05-17T10:10:41.200Z,19.92
2019-05-17T10:13:12.112Z,20.55
2019-05-17T10:15:41.954Z,19.80
2019-05-17T10:18:12.914Z,20.40
2019-05-17T10:20:42.768Z,19.00
2019-05-17T10:23:12.687Z,19.10
2019-05-17T10:25:42.537Z,19.15
2019-05-17T10:28:12.402Z,22.15
2019-05-17T10:30:42.158Z,22.73
2019-05-17T10:33:12.402Z,20.63
2019-05-17T10:35:42.428Z,19.77
2019-05-17T10:38:15.372Z,23.90
2019-05-17T10:40:45.284Z,23.73
2019-05-17T10:43:15.185Z,25.48
2019-05-17T10:45:45.079Z,22.07
2019-05-17T10:48:15.007Z,22.10
2019-05-17T10:50:44.879Z,23.60
2019-05-17T10:53:14.735Z,23.07
2019-05-17T10:55:44.601Z,24.12
2019-05-17T10:58:32.521Z,22.80
2019-05-17T11:01:02.399Z,23.50
2019-05-17T11:03:32.269Z,24.95
2019-05-17T11:06:02.133Z,24.20
2019-05-17T11:12:05.299Z,23.55
2019-05-17T11:20:36.371Z,21.85
2019-05-17T11:23:10.344Z,22.10
2019-05-17T11:34:37.119Z,23.52
2019-05-17T11:36:50.669Z,23.55
2019-05-17T11:39:23.840Z,22.13
2019-05-17T11:42:05.581Z,22.50
2019-05-17T11:44:35.454Z,27.98
2019-05-17T11:47:13.664Z,25.85
2019-05-17T11:49:45.874Z,25.37
2019-05-17T11:52:22.620Z,25.62
2019-05-17T11:55:02.662Z,26.93
2019-05-17T11:57:38.566Z,25.27
2019-05-17T12:00:06.924Z,24.90
2019-05-17T12:02:42.762Z,24.03
2019-05-17T12:05:21.409Z,25.62
2019-05-17T12:08:12.598Z,26.35
2019-05-17T12:10:46.104Z,26.40
2019-05-17T12:13:20.702Z,25.67
2019-05-17T12:15:53.780Z,25.27
2019-05-17T12:18:28.520Z,23.70
2019-05-17T12:23:44.649Z,26.07
2019-05-17T12:26:56.119Z,27.48
2019-05-17T12:29:12.265Z,23.80
2019-05-17T12:31:58.953Z,23.60
2019-05-17T12:35:08.014Z,25.17
2019-05-17T12:37:31.913Z,24.25
2019-05-17T12:39:57.833Z,23.77
2019-05-17T12:42:27.937Z,24.18
2019-05-17T12:45:14.859Z,27.23
2019-05-17T12:51:15.449Z,27.45
2019-05-17T12:53:32.671Z,24.55
2019-05-17T12:56:08.881Z,25.05
2019-05-17T12:58:38.393Z,28.07
2019-05-17T13:01:18.412Z,29.75
2019-05-17T13:03:52.709Z,26.40
2019-05-17T13:06:29.026Z,29.20
2019-05-17T13:09:10.530Z,27.50
2019-05-17T13:11:50.667Z,25.13
2019-05-17T13:14:25.703Z,26.00
2019-05-17T13:17:11.315Z,28.83
2019-05-17T13:19:52.510Z,26.00
2019-05-17T13:22:24.101Z,27.55
2019-05-17T13:25:00.957Z,27.37
2019-05-17T13:27:43.504Z,26.75
2019-05-17T13:30:14.596Z,28.17
2019-05-17T13:32:47.664Z,28.27
2019-05-17T13:35:32.040Z,27.25
2019-05-17T13:38:50.778Z,24.52
2019-05-17T13:40:39.275Z,27.32
2019-05-17T13:43:15.067Z,27.67
2019-05-17T13:45:47.093Z,25.97
2019-05-17T13:48:18.012Z,25.17
2019-05-17T13:50:52.104Z,25.40
2019-05-17T13:53:24.042Z,25.82
2019-05-17T13:56:02.535Z,25.77
2019-05-17T13:58:35.316Z,26.73
2019-05-17T14:03:42.075Z,31.17
2019-05-17T14:06:13.266Z,34.98
2019-05-17T14:08:48.729Z,27.50
2019-05-17T14:11:20.927Z,28.55
2019-05-17T14:13:55.271Z,30.97
2019-05-17T14:16:28.401Z,29.45
2019-05-17T14:19:07.086Z,32.08
2019-05-17T14:21:41.812Z,33.00
2019-05-17T14:24:20.775Z,33.48
2019-05-17T14:26:49.516Z,31.55
2019-05-17T14:29:48.923Z,32.83
2019-05-17T14:32:03.789Z,33.13
2019-05-17T14:37:42.238Z,32.40
2019-05-17T14:40:07.655Z,32.33
2019-05-17T14:42:36.171Z,36.85
2019-05-17T14:45:10.420Z,31.02
2019-05-17T14:47:55.496Z,29.82
2019-05-17T14:50:22.473Z,34.83
2019-05-17T14:52:52.799Z,34.30
2019-05-17T14:55:27.066Z,35.75
2019-05-17T14:57:56.907Z,35.63
2019-05-17T15:00:26.862Z,34.67
2019-05-17T15:02:59.237Z,33.18
2019-05-17T15:05:29.155Z,34.27
2019-05-17T15:07:58.995Z,34.05
2019-05-17T15:10:28.916Z,33.98
2019-05-17T15:13:01.414Z,33.15
2019-05-17T15:15:30.277Z,32.48
2019-05-17T15:18:01.186Z,31.95
2019-05-17T15:20:31.070Z,30.50
2019-05-17T15:23:01.082Z,31.20
2019-05-17T15:25:31.059Z,32.88
2019-05-17T15:28:00.972Z,30.95
2019-05-17T15:30:56.185Z,31.48
2019-05-17T15:33:26.143Z,34.65
2019-05-17T15:35:56.124Z,35.17
2019-05-17T15:38:27.794Z,28.38
2019-05-17T15:40:57.795Z,35.23
2019-05-17T15:43:27.768Z,32.90
2019-05-17T15:45:57.690Z,32.55
2019-05-17T15:48:46.746Z,32.30
2019-05-17T15:51:16.583Z,34.18
2019-05-17T15:53:46.521Z,35.15
2019-05-17T15:56:17.951Z,33.08
2019-05-17T15:58:47.907Z,33.80
2019-05-17T16:01:17.885Z,29.80
2019-05-17T16:03:47.761Z,35.08
2019-05-17T16:06:17.724Z,30.70
2019-05-17T16:08:47.565Z,33.13
2019-05-17T16:11:17.538Z,27.62
2019-05-17T16:13:48.955Z,33.25
2019-05-17T16:16:19.012Z,35.33
2019-05-17T16:19:25.489Z,35.17
2019-05-17T16:21:57.085Z,35.03
2019-05-17T16:24:30.623Z,31.95
2019-05-17T16:27:03.316Z,29.65
2019-05-17T16:29:33.324Z,33.60
2019-05-17T16:32:03.245Z,28.05
2019-05-17T16:34:33.217Z,33.53
2019-05-17T16:37:03.185Z,35.57
2019-05-17T16:39:36.417Z,34.70
2019-05-17T16:42:06.316Z,32.88
2019-05-17T16:44:36.244Z,33.60
2019-05-17T16:47:06.168Z,33.23
2019-05-17T16:49:39.329Z,34.08
2019-05-17T16:52:12.389Z,33.13
2019-05-17T16:54:42.340Z,36.30
2019-05-17T16:57:13.879Z,29.48
2019-05-17T16:59:47.709Z,36.03
2019-05-17T17:02:17.676Z,34.75
2019-05-17T17:04:47.843Z,32.40
2019-05-17T17:07:17.728Z,32.38
2019-05-17T17:09:47.755Z,32.98
2019-05-17T17:12:17.584Z,35.28
2019-05-17T17:14:47.566Z,31.70
2019-05-17T17:17:17.492Z,34.60
2019-05-17T17:19:47.579Z,37.42
2019-05-17T17:22:17.545Z,36.90
2019-05-17T17:24:47.430Z,35.95
2019-05-17T17:27:17.411Z,36.20
2019-05-17T17:29:48.866Z,34.88
2019-05-17T17:32:21.803Z,33.15
2019-05-17T17:34:52.847Z,33.65
2019-05-17T17:37:22.819Z,36.05
2019-05-17T17:39:54.265Z,36.05
2019-05-17T17:42:24.207Z,36.65
2019-05-17T17:44:54.139Z,34.45
2019-05-17T17:47:24.836Z,35.57
2019-05-17T17:49:55.779Z,35.38
2019-05-17T17:52:25.721Z,36.63
2019-05-17T17:54:55.601Z,36.30
2019-05-17T17:57:25.505Z,36.77
2019-05-17T17:59:55.789Z,35.47
2019-05-17T18:02:26.896Z,37.08
2019-05-17T18:05:00.536Z,34.98
2019-05-17T18:07:30.489Z,34.65
2019-05-17T18:10:01.383Z,36.88
2019-05-17T18:12:31.351Z,40.10
2019-05-17T18:15:04.489Z,37.13
2019-05-17T18:17:39.051Z,37.03
2019-05-17T18:20:04.904Z,37.08
2019-05-17T18:22:34.827Z,37.60
2019-05-17T18:25:05.977Z,41.08
2019-05-17T18:27:35.936Z,42.62
2019-05-17T18:30:09.230Z,41.73
2019-05-17T18:32:39.143Z,39.92
2019-05-17T18:35:09.087Z,43.35
2019-05-17T18:37:44.714Z,43.58
2019-05-17T18:40:14.600Z,43.08
2019-05-17T18:42:44.579Z,43.15
2019-05-17T18:45:14.591Z,44.20
2019-05-17T18:47:44.507Z,42.90
2019-05-17T18:50:14.905Z,40.95
2019-05-17T18:52:44.798Z,40.73
2019-05-17T18:55:15.076Z,40.33
2019-05-17T18:57:45.057Z,40.35
2019-05-17T19:00:16.194Z,39.57
2019-05-17T19:02:46.124Z,38.63
2019-05-17T19:05:16.942Z,39.30
2019-05-17T19:07:47.902Z,41.03
2019-05-17T19:10:17.944Z,40.12
2019-05-17T19:12:47.822Z,39.35
2019-05-17T19:15:18.529Z,39.63
2019-05-17T19:17:48.433Z,40.95
2019-05-17T19:20:18.496Z,39.92
2019-05-17T19:22:48.373Z,39.53
2019-05-17T19:25:18.395Z,40.58
2019-05-17T19:27:48.305Z,41.23
2019-05-17T19:30:18.422Z,40.28
2019-05-17T19:32:48.348Z,40.80
2019-05-17T19:35:18.531Z,41.85
2019-05-17T19:37:48.473Z,41.73
2019-05-17T19:40:19.692Z,40.73
2019-05-17T19:42:50.604Z,40.92
2019-05-17T19:45:20.622Z,39.85
2019-05-17T19:47:54.745Z,40.30
2019-05-17T19:50:24.619Z,38.67
2019-05-17T19:52:54.552Z,37.30
2019-05-17T19:55:24.436Z,36.53
2019-05-17T19:57:55.331Z,34.35
2019-05-17T20:00:25.229Z,35.53
2019-05-17T20:02:55.292Z,33.25
2019-05-17T20:05:25.206Z,33.55
2019-05-17T20:07:55.200Z,31.87
2019-05-17T20:10:25.147Z,31.40
2019-05-17T20:12:55.062Z,31.33
2019-05-17T20:15:34.179Z,30.85
2019-05-17T20:17:56.517Z,30.35
2019-05-17T20:20:28.825Z,29.92
2019-05-17T20:22:58.073Z,29.52
2019-05-17T20:25:28.120Z,30.65
2019-05-17T20:27:58.048Z,30.02
2019-05-17T20:30:28.088Z,29.77
2019-05-17T20:32:57.959Z,30.45
2019-05-17T20:35:27.838Z,30.73
2019-05-17T20:37:57.675Z,30.15
2019-05-17T20:40:27.600Z,30.12
2019-05-17T20:42:57.463Z,30.17
2019-05-17T20:45:33.165Z,29.90
2019-05-17T20:47:58.932Z,31.27
2019-05-17T20:50:29.076Z,31.17
2019-05-17T20:52:58.984Z,31.77
2019-05-17T20:55:28.911Z,31.27
2019-05-17T20:57:58.864Z,31.48
2019-05-17T21:00:28.777Z,32.53
2019-05-17T21:02:58.703Z,33.78
2019-05-17T21:05:28.585Z,33.67
2019-05-17T21:07:58.481Z,33.53
2019-05-17T21:10:28.416Z,33.73
2019-05-17T21:12:58.251Z,32.80
2019-05-17T21:15:28.226Z,33.40
2019-05-17T21:17:58.099Z,34.85
2019-05-17T21:20:27.991Z,33.35
2019-05-17T21:22:58.082Z,35.97
2019-05-17T21:25:28.007Z,33.65
2019-05-17T21:27:57.958Z,34.27
2019-05-17T21:30:27.862Z,34.55
2019-05-17T21:32:57.766Z,35.35
2019-05-17T21:35:27.725Z,34.40
2019-05-17T21:37:57.609Z,35.60
2019-05-17T21:40:27.489Z,34.50
2019-05-17T21:42:57.352Z,36.85
2019-05-17T21:45:27.378Z,36.58
2019-05-17T21:47:57.227Z,36.85
2019-05-17T21:50:27.138Z,37.23
2019-05-17T21:52:57.012Z,36.85
2019-05-17T21:55:27.984Z,37.20
2019-05-17T21:57:57.848Z,36.00
2019-05-17T22:00:50.386Z,35.75
2019-05-17T22:03:20.292Z,36.80
2019-05-17T22:05:50.201Z,37.13
2019-05-17T22:08:20.088Z,36.60
2019-05-17T22:10:50.620Z,36.33
2019-05-17T22:13:20.476Z,36.13
2019-05-17T22:15:50.373Z,37.65
2019-05-17T22:18:22.845Z,37.70
2019-05-17T22:20:52.765Z,38.28
2019-05-17T22:23:40.541Z,38.30
2019-05-17T22:26:10.491Z,38.13
2019-05-17T22:28:44.094Z,39.07
2019-05-17T22:31:14.624Z,39.60
2019-05-17T22:33:44.541Z,39.25
2019-05-17T22:36:14.373Z,39.23
2019-05-17T22:38:46.353Z,39.83
2019-05-17T22:41:16.271Z,39.53
2019-05-17T22:43:46.173Z,41.28
2019-05-17T22:46:16.022Z,39.27
2019-05-17T22:48:47.021Z,40.35
2019-05-17T22:51:16.878Z,41.30
2019-05-17T22:53:46.812Z,38.83
2019-05-17T22:56:16.666Z,40.50
2019-05-17T22:58:46.632Z,39.58
2019-05-17T23:01:16.533Z,39.35
2019-05-17T23:03:46.418Z,40.17
2019-05-17T23:06:16.354Z,39.65
2019-05-17T23:08:53.289Z,40.23
2019-05-17T23:11:23.366Z,41.37
2019-05-17T23:13:53.266Z,41.53
2019-05-17T23:16:23.163Z,41.87
2019-05-17T23:19:11.511Z,40.88
2019-05-17T23:21:41.349Z,39.95
2019-05-17T23:24:11.327Z,39.60
2019-05-17T23:26:41.191Z,38.03
2019-05-17T23:29:11.246Z,38.83
2019-05-17T23:31:41.160Z,41.85
2019-05-17T23:34:11.081Z,38.90
2019-05-17T23:36:40.976Z,40.55
2019-05-17T23:39:10.897Z,40.10
2019-05-17T23:41:40.786Z,39.67
2019-05-17T23:44:10.725Z,41.05
2019-05-17T23:46:40.565Z,40.45
2019-05-17T23:49:10.506Z,41.27
2019-05-17T23:51:40.371Z,41.58
2019-05-17T23:54:10.275Z,41.05
2019-05-17T23:56:41.131Z,40.77
2019-05-17T23:59:29.057Z,40.78
